createdAt,value
2018-11-13T00:00:38.590Z,9.4
2018-11-13T00:01:38.484Z,9.4
2018-11-13T00:02:38.401Z,9.4
2018-11-13T00:03:38.793Z,9.3
2018-11-13T00:13:37.737Z,9.8
2018-11-13T00:14:37.631Z,9.8
2018-11-13T00:15:37.535Z,9.7
2018-11-13T00:16:37.424Z,9.7
2018-11-13T00:17:37.315Z,9.6
2018-11-13T00:18:37.270Z,9.6
2018-11-13T00:19:37.178Z,9.6
2018-11-13T00:20:37.078Z,9.5
2018-11-13T00:21:36.985Z,9.4
2018-11-13T00:22:36.878Z,9.4
2018-11-13T00:23:37.292Z,9.3
2018-11-13T00:24:37.206Z,9.3
2018-11-13T00:25:37.104Z,9.4
2018-11-13T00:26:37.000Z,9.3
2018-11-13T00:27:37.419Z,9.3
2018-11-13T00:28:37.935Z,9.3
2018-11-13T00:29:37.834Z,9.2
2018-11-13T00:30:37.735Z,9.2
2018-11-13T00:31:37.667Z,9.2
2018-11-13T00:32:37.573Z,9.1
2018-11-13T00:33:37.909Z,9.1
2018-11-13T00:34:37.848Z,9.1
2018-11-13T00:35:37.745Z,9.1
2018-11-13T00:36:37.632Z,9.1
2018-11-13T00:37:37.532Z,9.1
2018-11-13T00:38:37.433Z,9.1
2018-11-13T00:39:37.341Z,9.1
2018-11-13T00:40:37.235Z,9.1
2018-11-13T00:41:37.132Z,9.1
2018-11-13T00:42:37.038Z,9.1
2018-11-13T00:43:37.354Z,9.1
2018-11-13T00:44:37.269Z,9.1
2018-11-13T00:45:37.650Z,9
2018-11-13T00:46:38.083Z,9.1
2018-11-13T00:47:37.985Z,9
2018-11-13T00:48:37.928Z,9
2018-11-13T00:49:37.856Z,9
2018-11-13T00:50:37.953Z,9
2018-11-13T00:51:38.196Z,9
2018-11-13T00:52:38.095Z,9
2018-11-13T00:53:38.428Z,9
2018-11-13T00:54:38.320Z,9
2018-11-13T00:55:38.237Z,9
2018-11-13T00:56:38.131Z,9
2018-11-13T00:57:38.020Z,9
2018-11-13T00:58:37.916Z,9
2018-11-13T00:59:37.831Z,8.9
2018-11-13T01:00:37.874Z,8.9
2018-11-13T01:01:37.991Z,8.9
2018-11-13T01:02:37.900Z,8.9
2018-11-13T01:03:38.255Z,8.9
2018-11-13T01:04:38.158Z,8.9
2018-11-13T01:05:38.169Z,8.9
2018-11-13T01:06:38.314Z,8.9
2018-11-13T01:07:38.354Z,8.9
2018-11-13T01:08:38.509Z,8.9
2018-11-13T01:09:38.405Z,8.9
2018-11-13T01:10:38.292Z,8.9
2018-11-13T01:11:38.325Z,8.9
2018-11-13T01:12:38.336Z,8.9
2018-11-13T01:13:38.874Z,8.9
2018-11-13T01:14:38.764Z,8.9
2018-11-13T01:15:38.655Z,8.9
2018-11-13T01:16:38.561Z,8.9
2018-11-13T01:17:38.458Z,8.9
2018-11-13T01:18:38.350Z,8.9
2018-11-13T01:19:38.240Z,8.8
2018-11-13T01:20:38.144Z,8.9
2018-11-13T01:21:38.055Z,8.9
2018-11-13T01:22:37.971Z,8.9
2018-11-13T01:23:38.328Z,8.8
2018-11-13T01:24:38.264Z,8.8
2018-11-13T01:25:38.221Z,8.8
2018-11-13T01:26:38.140Z,8.8
2018-11-13T01:27:38.039Z,8.8
2018-11-13T01:28:37.944Z,8.8
2018-11-13T01:29:37.842Z,8.9
2018-11-13T01:30:37.772Z,8.9
2018-11-13T01:31:37.690Z,8.8
2018-11-13T01:32:37.596Z,8.8
2018-11-13T01:33:38.914Z,8.8
2018-11-13T01:34:38.814Z,8.8
2018-11-13T01:35:38.713Z,8.8
2018-11-13T01:36:38.626Z,8.8
2018-11-13T01:37:38.526Z,8.8
2018-11-13T01:38:38.441Z,8.8
2018-11-13T01:39:38.336Z,8.8
2018-11-13T01:40:38.236Z,8.8
2018-11-13T01:41:38.379Z,8.8
2018-11-13T01:42:41.329Z,8.8
2018-11-13T01:43:41.655Z,8.8
2018-11-13T01:44:41.559Z,8.8
2018-11-13T01:45:41.506Z,8.8
2018-11-13T01:46:41.404Z,8.8
2018-11-13T01:47:41.312Z,8.8
2018-11-13T01:48:41.234Z,8.8
2018-11-13T01:49:42.528Z,8.8
2018-11-13T01:50:42.536Z,8.8
2018-11-13T01:51:42.506Z,8.8
2018-11-13T01:52:42.420Z,8.8
2018-11-13T02:03:40.614Z,9.3
2018-11-13T02:04:40.516Z,9.3
2018-11-13T02:05:40.422Z,9.2
2018-11-13T02:06:40.307Z,9.2
2018-11-13T02:07:40.209Z,9.2
2018-11-13T02:08:40.132Z,9.2
2018-11-13T02:09:40.073Z,9.2
2018-11-13T02:10:39.968Z,9.1
2018-11-13T02:11:39.858Z,9.1
2018-11-13T02:12:39.757Z,9.1
2018-11-13T02:13:40.093Z,9
2018-11-13T02:14:39.976Z,9
2018-11-13T02:15:39.897Z,9
2018-11-13T02:16:39.798Z,9.1
2018-11-13T02:17:39.698Z,9
2018-11-13T02:18:39.619Z,9
2018-11-13T02:19:39.520Z,9
2018-11-13T02:20:39.460Z,9
2018-11-13T02:21:39.365Z,9
2018-11-13T02:22:39.268Z,9
2018-11-13T02:23:39.596Z,8.9
2018-11-13T02:24:39.493Z,8.9
2018-11-13T02:25:39.409Z,9
2018-11-13T02:26:39.304Z,9
2018-11-13T02:27:39.201Z,9
2018-11-13T02:28:39.100Z,9
2018-11-13T02:29:38.986Z,8.9
2018-11-13T02:30:38.891Z,8.9
2018-11-13T02:31:38.804Z,9
2018-11-13T02:32:38.693Z,8.9
2018-11-13T02:33:39.009Z,8.9
2018-11-13T02:34:38.916Z,8.9
2018-11-13T02:35:39.335Z,8.9
2018-11-13T02:36:39.722Z,9
2018-11-13T02:37:39.637Z,9
2018-11-13T02:38:39.526Z,8.9
2018-11-13T02:39:39.424Z,9
2018-11-13T02:40:39.394Z,8.9
2018-11-13T02:41:39.301Z,9
2018-11-13T02:42:39.219Z,9
2018-11-13T02:53:41.321Z,9.8
2018-11-13T02:54:41.222Z,9.8
2018-11-13T02:55:41.117Z,9.7
2018-11-13T02:56:41.037Z,9.7
2018-11-13T02:57:40.914Z,9.7
2018-11-13T02:58:40.874Z,9.7
2018-11-13T02:59:40.754Z,9.8
2018-11-13T03:00:40.656Z,9.8
2018-11-13T03:01:40.563Z,9.7
2018-11-13T03:02:40.465Z,9.7
2018-11-13T03:03:40.823Z,9.7
2018-11-13T03:04:40.721Z,9.6
2018-11-13T03:05:40.604Z,9.6
2018-11-13T03:06:40.510Z,9.6
2018-11-13T03:07:40.425Z,9.5
2018-11-13T03:08:40.338Z,9.5
2018-11-13T03:09:40.264Z,9.5
2018-11-13T03:10:40.182Z,9.5
2018-11-13T03:11:40.131Z,9.5
2018-11-13T03:12:40.035Z,9.4
2018-11-13T03:13:40.838Z,9.5
2018-11-13T03:14:41.118Z,9.5
2018-11-13T03:15:41.036Z,9.5
2018-11-13T03:16:40.989Z,9.5
2018-11-13T03:17:40.892Z,9.5
2018-11-13T03:18:40.813Z,9.6
2018-11-13T03:19:40.702Z,9.5
2018-11-13T03:20:40.595Z,9.5
2018-11-13T03:21:40.514Z,9.6
2018-11-13T03:22:40.417Z,9.6
2018-11-13T03:23:40.764Z,9.5
2018-11-13T03:43:38.528Z,10.3
2018-11-13T03:44:38.449Z,10.2
2018-11-13T03:45:38.341Z,10.1
2018-11-13T03:46:38.278Z,10
2018-11-13T03:47:38.176Z,10
2018-11-13T03:48:38.065Z,9.9
2018-11-13T03:49:37.972Z,9.9
2018-11-13T03:50:37.889Z,9.9
2018-11-13T03:51:37.798Z,9.8
2018-11-13T03:52:37.711Z,9.7
2018-11-13T03:53:38.051Z,9.7
2018-11-13T03:54:37.957Z,9.5
2018-11-13T03:55:37.855Z,9.5
2018-11-13T03:56:37.793Z,9.4
2018-11-13T03:57:37.692Z,9.4
2018-11-13T03:58:37.599Z,9.4
2018-11-13T03:59:37.502Z,9.4
2018-11-13T04:00:37.405Z,9.3
2018-11-13T04:01:37.324Z,9.3
2018-11-13T04:02:37.225Z,9.2
2018-11-13T04:03:37.546Z,9.2
2018-11-13T04:04:37.457Z,9.1
2018-11-13T04:05:37.357Z,9.1
2018-11-13T04:06:37.495Z,9.1
2018-11-13T04:07:37.391Z,9
2018-11-13T04:08:37.322Z,9
2018-11-13T04:09:37.209Z,9
2018-11-13T04:10:37.099Z,8.9
2018-11-13T04:11:37.008Z,8.9
2018-11-13T04:12:36.887Z,8.9
2018-11-13T04:13:37.227Z,8.9
2018-11-13T04:14:37.117Z,8.9
2018-11-13T04:15:37.018Z,8.8
2018-11-13T04:16:36.931Z,8.8
2018-11-13T04:17:36.884Z,8.8
2018-11-13T04:18:36.852Z,8.7
2018-11-13T04:19:36.776Z,8.7
2018-11-13T04:20:36.659Z,8.7
2018-11-13T04:21:37.585Z,8.7
2018-11-13T04:22:37.505Z,8.7
2018-11-13T04:23:37.868Z,8.6
2018-11-13T04:24:37.780Z,8.6
2018-11-13T04:25:40.808Z,8.6
2018-11-13T04:26:40.720Z,8.6
2018-11-13T04:27:40.653Z,8.6
2018-11-13T04:28:40.625Z,8.6
2018-11-13T04:29:40.527Z,8.6
2018-11-13T04:30:40.723Z,8.6
2018-11-13T04:31:41.080Z,8.6
2018-11-13T04:32:40.986Z,8.6
2018-11-13T04:33:41.354Z,8.6
2018-11-13T04:34:41.257Z,8.5
2018-11-13T04:35:41.161Z,8.5
2018-11-13T04:36:41.100Z,8.5
2018-11-13T04:37:40.992Z,8.5
2018-11-13T04:38:40.918Z,8.5
2018-11-13T04:39:40.810Z,8.4
2018-11-13T04:40:40.745Z,8.5
2018-11-13T04:41:40.664Z,8.5
2018-11-13T04:42:40.582Z,8.5
2018-11-13T04:43:40.920Z,8.5
2018-11-13T04:44:40.843Z,8.5
2018-11-13T04:45:40.738Z,8.5
2018-11-13T04:46:40.674Z,8.5
2018-11-13T04:47:40.600Z,8.5
2018-11-13T04:48:40.491Z,8.5
2018-11-13T04:49:40.400Z,8.4
2018-11-13T04:50:40.283Z,8.4
2018-11-13T04:51:40.563Z,8.4
2018-11-13T04:52:41.018Z,8.4
2018-11-13T04:53:41.350Z,8.4
2018-11-13T04:54:41.268Z,8.5
2018-11-13T04:55:41.180Z,8.5
2018-11-13T04:56:41.096Z,8.5
2018-11-13T04:57:40.992Z,8.5
2018-11-13T04:58:40.874Z,8.5
2018-11-13T04:59:40.753Z,8.4
2018-11-13T05:00:40.646Z,8.5
2018-11-13T05:01:40.564Z,8.5
2018-11-13T05:02:40.635Z,8.5
2018-11-13T05:03:41.402Z,8.5
2018-11-13T05:13:39.424Z,9.1
2018-11-13T05:14:39.337Z,9
2018-11-13T05:15:39.263Z,9
2018-11-13T05:16:39.208Z,8.9
2018-11-13T05:17:39.111Z,8.8
2018-11-13T05:18:39.013Z,8.8
2018-11-13T05:19:38.923Z,8.7
2018-11-13T05:20:38.824Z,8.6
2018-11-13T05:21:38.754Z,8.6
2018-11-13T05:22:38.669Z,8.6
2018-11-13T05:23:39.443Z,8.6
2018-11-13T05:24:39.351Z,8.5
2018-11-13T05:25:39.240Z,8.5
2018-11-13T05:26:39.151Z,8.5
2018-11-13T05:27:39.071Z,8.4
2018-11-13T05:28:38.973Z,8.5
2018-11-13T05:29:38.877Z,8.4
2018-11-13T05:30:38.780Z,8.4
2018-11-13T05:31:38.679Z,8.3
2018-11-13T05:32:38.815Z,8.3
2018-11-13T05:33:39.179Z,8.3
2018-11-13T05:34:40.063Z,8.3
2018-11-13T05:35:39.957Z,8.2
2018-11-13T05:36:39.838Z,8.3
2018-11-13T05:37:40.034Z,8.2
2018-11-13T05:38:39.929Z,8.2
2018-11-13T05:39:39.817Z,8.2
2018-11-13T05:40:39.709Z,8.1
2018-11-13T05:41:39.862Z,8.1
2018-11-13T05:42:40.219Z,8.1
2018-11-13T05:43:40.579Z,8.2
2018-11-13T05:44:40.485Z,8.2
2018-11-13T05:45:40.380Z,8.2
2018-11-13T05:46:40.297Z,8.3
2018-11-13T05:47:40.211Z,8.3
2018-11-13T05:48:40.135Z,8.4
2018-11-13T05:49:40.034Z,8.4
2018-11-13T05:50:39.932Z,8.4
2018-11-13T05:51:39.837Z,8.4
2018-11-13T05:52:39.764Z,8.3
2018-11-13T06:13:36.653Z,9.4
2018-11-13T06:14:36.564Z,9.4
2018-11-13T06:15:36.458Z,9.4
2018-11-13T06:16:36.349Z,9.3
2018-11-13T06:17:36.262Z,9.3
2018-11-13T06:18:36.422Z,9.2
2018-11-13T06:19:36.339Z,9.2
2018-11-13T06:20:36.247Z,9.2
2018-11-13T06:21:36.141Z,9.1
2018-11-13T06:22:36.059Z,9.1
2018-11-13T06:23:36.929Z,9
2018-11-13T06:24:36.819Z,9
2018-11-13T06:25:36.732Z,8.9
2018-11-13T06:26:36.635Z,8.9
2018-11-13T06:27:36.534Z,8.9
2018-11-13T06:28:36.457Z,8.9
2018-11-13T06:29:36.577Z,8.9
2018-11-13T06:30:36.928Z,8.8
2018-11-13T06:31:36.832Z,8.8
2018-11-13T06:32:36.722Z,8.8
2018-11-13T06:33:37.082Z,8.8
2018-11-13T06:34:36.996Z,8.7
2018-11-13T06:35:36.905Z,8.7
2018-11-13T06:36:36.834Z,8.7
2018-11-13T06:37:36.751Z,8.7
2018-11-13T06:38:36.726Z,8.7
2018-11-13T06:39:36.744Z,8.7
2018-11-13T06:40:36.651Z,8.7
2018-11-13T06:41:36.554Z,8.7
2018-11-13T06:42:36.455Z,8.7
2018-11-13T06:43:36.814Z,8.7
2018-11-13T06:44:36.724Z,8.7
2018-11-13T06:45:36.631Z,8.6
2018-11-13T06:46:36.525Z,8.6
2018-11-13T06:47:36.408Z,8.6
2018-11-13T06:48:39.652Z,8.6
2018-11-13T06:49:40.203Z,8.5
2018-11-13T06:50:40.609Z,8.5
2018-11-13T06:51:40.500Z,8.5
2018-11-13T06:52:40.420Z,8.5
2018-11-13T06:53:40.784Z,8.5
2018-11-13T06:54:40.680Z,8.5
2018-11-13T06:55:40.570Z,8.4
2018-11-13T06:56:40.460Z,8.5
2018-11-13T06:57:40.386Z,8.5
2018-11-13T06:58:40.300Z,8.4
2018-11-13T06:59:40.224Z,8.5
2018-11-13T07:00:43.044Z,8.4
2018-11-13T07:01:42.950Z,8.4
2018-11-13T07:02:42.848Z,8.4
2018-11-13T07:03:43.255Z,8.4
2018-11-13T07:04:43.187Z,8.4
2018-11-13T07:05:43.085Z,8.4
2018-11-13T07:06:42.990Z,8.3
2018-11-13T07:07:42.878Z,8.4
2018-11-13T07:08:42.801Z,8.4
2018-11-13T07:09:42.712Z,8.5
2018-11-13T07:10:42.953Z,8.4
2018-11-13T07:11:43.173Z,8.4
2018-11-13T07:12:43.088Z,8.5
2018-11-13T07:13:43.437Z,8.5
2018-11-13T07:33:40.575Z,9.9
2018-11-13T07:34:40.862Z,9.9
2018-11-13T07:35:40.770Z,9.9
2018-11-13T07:36:40.681Z,9.9
2018-11-13T07:37:40.583Z,9.9
2018-11-13T07:38:40.486Z,9.9
2018-11-13T07:39:40.386Z,9.9
2018-11-13T07:40:40.294Z,10
2018-11-13T07:41:40.196Z,10
2018-11-13T07:42:40.112Z,10
2018-11-13T07:43:40.458Z,9.9
2018-11-13T07:44:40.354Z,9.9
2018-11-13T07:45:40.264Z,10
2018-11-13T07:46:40.379Z,10.1
2018-11-13T07:47:41.418Z,10.1
2018-11-13T07:48:42.592Z,10.1
2018-11-13T07:49:42.500Z,10.2
2018-11-13T07:50:42.402Z,10.2
2018-11-13T07:51:45.008Z,10.3
2018-11-13T07:52:44.927Z,10.4
2018-11-13T07:53:45.362Z,10.4
2018-11-13T07:54:45.581Z,10.5
2018-11-13T07:55:45.556Z,10.6
2018-11-13T07:56:45.454Z,10.6
2018-11-13T07:57:45.354Z,10.6
2018-11-13T07:58:45.264Z,10.6
2018-11-13T07:59:45.156Z,10.6
2018-11-13T08:00:45.055Z,10.6
2018-11-13T08:01:44.940Z,10.6
2018-11-13T08:02:44.842Z,10.6
2018-11-13T08:03:45.736Z,10.6
2018-11-13T08:04:45.954Z,10.7
2018-11-13T08:05:46.190Z,10.7
2018-11-13T08:06:46.876Z,10.8
2018-11-13T08:07:47.358Z,10.9
2018-11-13T08:08:47.282Z,11
2018-11-13T08:09:47.205Z,11.1
2018-11-13T08:10:47.088Z,11.2
2018-11-13T08:11:46.978Z,11.2
2018-11-13T08:12:47.352Z,11.3
2018-11-13T08:13:49.821Z,11.4
2018-11-13T08:14:49.740Z,11.4
2018-11-13T08:15:49.645Z,11.5
2018-11-13T08:16:49.555Z,11.5
2018-11-13T08:17:49.461Z,11.5
2018-11-13T08:18:49.519Z,11.4
2018-11-13T08:19:49.817Z,11.4
2018-11-13T08:20:49.719Z,11.4
2018-11-13T08:21:49.722Z,11.3
2018-11-13T08:22:49.673Z,11.3
2018-11-13T08:23:50.012Z,11.3
2018-11-13T08:24:49.914Z,11.3
2018-11-13T08:25:49.825Z,11.3
2018-11-13T08:26:49.843Z,11.3
2018-11-13T08:27:49.919Z,11.3
2018-11-13T08:28:50.066Z,11.3
2018-11-13T08:29:50.592Z,11.4
2018-11-13T08:30:50.513Z,11.5
2018-11-13T08:31:50.416Z,11.5
2018-11-13T08:32:50.346Z,11.6
2018-11-13T08:33:53.669Z,11.7
2018-11-13T08:34:53.810Z,11.8
2018-11-13T08:35:53.940Z,11.9
2018-11-13T08:36:53.842Z,11.9
2018-11-13T08:37:53.750Z,11.8
2018-11-13T08:38:53.664Z,11.8
2018-11-13T08:39:53.554Z,11.7
2018-11-13T08:40:53.496Z,11.6
2018-11-13T08:41:53.429Z,11.6
2018-11-13T08:42:53.320Z,11.5
2018-11-13T08:43:53.723Z,11.5
2018-11-13T08:44:53.744Z,11.5
2018-11-13T08:45:53.686Z,11.6
2018-11-13T08:46:53.579Z,11.5
2018-11-13T08:47:53.474Z,11.6
2018-11-13T08:48:53.409Z,11.7
2018-11-13T08:49:53.308Z,11.8
2018-11-13T08:50:53.366Z,11.8
2018-11-13T08:51:53.607Z,11.8
2018-11-13T08:52:53.512Z,11.9
2018-11-13T08:53:53.876Z,11.9
2018-11-13T08:54:53.789Z,11.9
2018-11-13T08:55:53.702Z,11.9
2018-11-13T08:56:53.634Z,12
2018-11-13T08:57:53.565Z,12
2018-11-13T08:58:53.821Z,12
2018-11-13T08:59:54.397Z,12
2018-11-13T09:00:54.315Z,12
2018-11-13T09:01:54.245Z,11.9
2018-11-13T09:02:54.156Z,12
2018-11-13T09:03:54.496Z,11.9
2018-11-13T09:13:53.527Z,13
2018-11-13T09:14:53.424Z,13.1
2018-11-13T09:15:53.321Z,13.1
2018-11-13T09:16:53.282Z,13.2
2018-11-13T09:17:53.400Z,13.3
2018-11-13T09:18:53.876Z,13.4
2018-11-13T09:19:54.153Z,13.4
2018-11-13T09:20:54.064Z,13.5
2018-11-13T09:21:54.282Z,13.6
2018-11-13T09:22:54.846Z,13.6
2018-11-13T09:23:55.540Z,13.6
2018-11-13T09:24:55.427Z,13.6
2018-11-13T09:25:55.327Z,13.6
2018-11-13T09:26:55.234Z,13.6
2018-11-13T09:27:55.181Z,13.6
2018-11-13T09:28:55.081Z,13.6
2018-11-13T09:29:55.436Z,13.7
2018-11-13T09:30:57.520Z,13.7
2018-11-13T09:31:59.263Z,13.6
2018-11-13T09:32:59.401Z,13.7
2018-11-13T09:34:00.379Z,13.8
2018-11-13T09:35:00.385Z,13.9
2018-11-13T09:43:58.865Z,15.1
2018-11-13T09:44:59.116Z,15.1
2018-11-13T09:46:00.183Z,15.1
2018-11-13T09:47:00.707Z,15.2
2018-11-13T09:48:00.627Z,15.2
2018-11-13T09:49:00.534Z,15.2
2018-11-13T09:50:00.439Z,15.2
2018-11-13T09:51:00.373Z,15.2
2018-11-13T09:52:00.290Z,15.3
2018-11-13T09:53:00.237Z,15.3
2018-11-13T09:54:01.148Z,15.4
2018-11-13T09:55:01.065Z,15.5
2018-11-13T09:56:00.971Z,15.5
2018-11-13T09:57:00.895Z,15.6
2018-11-13T09:58:00.800Z,15.7
2018-11-13T09:59:00.919Z,15.8
2018-11-13T10:00:01.595Z,15.7
2018-11-13T10:01:03.118Z,15.8
2018-11-13T10:02:06.794Z,15.8
2018-11-13T10:03:12.851Z,15.9
2018-11-13T10:04:25.625Z,15.8
2018-11-13T10:05:30.083Z,15.9
2018-11-13T10:06:30.718Z,15.9
2018-11-13T10:07:30.642Z,16
2018-11-13T10:13:29.552Z,16.5
2018-11-13T10:14:29.882Z,16.5
2018-11-13T10:15:29.775Z,16.6
2018-11-13T10:16:29.686Z,16.5
2018-11-13T10:17:29.788Z,16.4
2018-11-13T10:18:30.142Z,16.4
2018-11-13T10:19:30.071Z,16.3
2018-11-13T10:20:29.979Z,16.3
2018-11-13T10:21:29.910Z,16.2
2018-11-13T10:22:29.805Z,16.2
2018-11-13T10:23:29.706Z,16.1
2018-11-13T10:24:30.032Z,16
2018-11-13T10:25:29.927Z,15.9
2018-11-13T10:26:30.440Z,15.8
2018-11-13T10:27:30.778Z,15.8
2018-11-13T10:28:30.677Z,15.8
2018-11-13T10:29:30.581Z,15.7
2018-11-13T10:30:30.508Z,15.7
2018-11-13T10:31:30.500Z,15.7
2018-11-13T10:32:30.403Z,15.6
2018-11-13T10:33:30.287Z,15.6
2018-11-13T10:34:30.632Z,15.6
2018-11-13T10:35:30.512Z,15.6
2018-11-13T10:36:30.450Z,15.5
2018-11-13T10:37:30.497Z,15.5
2018-11-13T10:38:30.532Z,15.5
2018-11-13T10:39:30.430Z,15.5
2018-11-13T10:40:31.184Z,15.4
2018-11-13T10:41:32.427Z,15.4
2018-11-13T10:42:32.736Z,15.3
2018-11-13T10:43:32.640Z,15.3
2018-11-13T10:44:32.990Z,15.3
2018-11-13T10:45:32.897Z,15.3
2018-11-13T10:46:32.823Z,15.2
2018-11-13T10:47:32.737Z,15.2
2018-11-13T10:48:35.218Z,15.1
2018-11-13T10:49:35.136Z,15.1
2018-11-13T10:50:35.051Z,15.1
2018-11-13T10:51:34.982Z,15.1
2018-11-13T10:52:34.877Z,15.1
2018-11-13T10:53:34.775Z,15.1
2018-11-13T10:54:35.144Z,15
2018-11-13T10:55:35.058Z,15
2018-11-13T10:56:35.316Z,14.9
2018-11-13T10:57:36.789Z,14.9
2018-11-13T10:58:36.701Z,14.8
2018-11-13T10:59:36.605Z,14.7
2018-11-13T11:00:36.518Z,14.6
2018-11-13T11:01:36.438Z,14.6
2018-11-13T11:02:36.936Z,14.6
2018-11-13T11:03:37.780Z,14.5
2018-11-13T11:04:38.104Z,14.5
2018-11-13T11:05:38.022Z,14.4
2018-11-13T11:06:37.937Z,14.3
2018-11-13T11:07:37.825Z,14.2
2018-11-13T11:08:37.923Z,14.1
2018-11-13T11:09:37.922Z,14.1
2018-11-13T11:10:37.900Z,13.9
2018-11-13T11:11:37.814Z,13.8
2018-11-13T11:12:37.726Z,13.6
2018-11-13T11:13:38.328Z,13.7
2018-11-13T11:14:39.888Z,13.7
2018-11-13T11:15:39.806Z,13.7
2018-11-13T11:16:39.734Z,13.7
2018-11-13T11:17:39.647Z,13.7
2018-11-13T11:18:39.820Z,13.6
2018-11-13T11:19:40.179Z,13.6
2018-11-13T11:20:40.083Z,13.6
2018-11-13T11:21:39.990Z,13.5
2018-11-13T11:22:40.184Z,13.5
2018-11-13T11:23:41.115Z,13.5
2018-11-13T11:24:43.049Z,13.4
2018-11-13T11:25:42.970Z,13.4
2018-11-13T11:26:42.884Z,13.4
2018-11-13T11:27:42.906Z,13.4
2018-11-13T11:28:42.957Z,13.4
2018-11-13T11:29:42.865Z,13.3
2018-11-13T11:30:42.787Z,13.4
2018-11-13T11:31:42.705Z,13.3
2018-11-13T11:32:42.660Z,13.3
2018-11-13T11:33:42.605Z,13.4
2018-11-13T11:34:42.943Z,13.4
2018-11-13T11:35:45.880Z,13.3
2018-11-13T11:36:45.787Z,13.3
2018-11-13T11:37:45.740Z,13.3
2018-11-13T11:38:46.014Z,13.4
2018-11-13T11:39:46.495Z,13.3
2018-11-13T11:40:46.413Z,13.1
2018-11-13T11:41:46.320Z,13.1
2018-11-13T11:42:46.233Z,13
2018-11-13T11:43:46.147Z,12.9
2018-11-13T11:44:46.809Z,12.9
2018-11-13T11:45:46.703Z,12.8
2018-11-13T11:46:46.629Z,12.8
2018-11-13T11:47:46.533Z,12.8
2018-11-13T11:48:46.492Z,12.8
2018-11-13T11:49:46.392Z,12.7
2018-11-13T11:50:46.297Z,12.6
2018-11-13T11:51:46.205Z,12.6
2018-11-13T11:52:46.107Z,12.6
2018-11-13T11:53:46.261Z,12.6
2018-11-13T11:54:47.024Z,12.5
2018-11-13T11:55:46.946Z,12.5
2018-11-13T11:56:46.869Z,12.5
2018-11-13T11:57:46.776Z,12.5
2018-11-13T11:58:46.704Z,12.5
2018-11-13T11:59:46.634Z,12.4
2018-11-13T12:00:46.859Z,12.4
2018-11-13T12:01:47.390Z,12.3
2018-11-13T12:02:47.292Z,12.3
2018-11-13T12:03:47.217Z,12.3
2018-11-13T12:04:47.740Z,12.3
2018-11-13T12:05:47.817Z,12.2
2018-11-13T12:34:52.641Z,12.5
2018-11-13T12:35:52.556Z,12.5
2018-11-13T12:36:52.465Z,12.4
2018-11-13T12:37:52.383Z,12.3
2018-11-13T12:38:52.289Z,12.3
2018-11-13T12:39:52.193Z,12.3
2018-11-13T12:40:52.367Z,12.2
2018-11-13T12:41:52.608Z,12.2
2018-11-13T12:42:52.511Z,12.1
2018-11-13T12:43:52.417Z,12.1
2018-11-13T12:44:52.765Z,12.1
2018-11-13T12:45:52.694Z,12
2018-11-13T12:46:52.747Z,12
2018-11-13T12:47:52.817Z,11.9
2018-11-13T12:48:53.262Z,11.8
2018-11-13T12:49:53.689Z,11.8
2018-11-13T12:50:53.605Z,11.7
2018-11-13T12:51:53.509Z,11.7
2018-11-13T12:52:53.409Z,11.7
2018-11-13T12:53:53.341Z,11.7
2018-11-13T12:54:53.679Z,11.6
2018-11-13T13:04:53.637Z,12
2018-11-13T13:05:53.581Z,11.9
2018-11-13T13:06:53.482Z,11.9
2018-11-13T13:07:53.416Z,11.8
2018-11-13T13:08:53.326Z,11.7
2018-11-13T13:09:53.241Z,11.7
2018-11-13T13:10:53.169Z,11.6
2018-11-13T13:11:53.085Z,11.5
2018-11-13T13:12:52.998Z,11.5
2018-11-13T13:13:52.919Z,11.4
2018-11-13T13:14:53.561Z,11.4
2018-11-13T13:15:53.878Z,11.4
2018-11-13T13:24:52.966Z,11.8
2018-11-13T13:25:53.193Z,11.7
2018-11-13T13:26:53.718Z,11.7
2018-11-13T13:27:53.629Z,11.7
2018-11-13T13:28:53.556Z,11.6
2018-11-13T13:29:53.456Z,11.6
2018-11-13T13:30:53.437Z,11.6
2018-11-13T13:31:53.779Z,11.5
2018-11-13T13:32:54.285Z,11.5
2018-11-13T13:33:54.232Z,11.4
2018-11-13T13:34:54.588Z,11.3
2018-11-13T13:35:54.522Z,11.3
2018-11-13T13:36:54.438Z,11.3
2018-11-13T13:37:54.320Z,11.3
2018-11-13T13:38:54.652Z,11.2
2018-11-13T13:39:54.963Z,11.2
2018-11-13T13:40:54.871Z,11.1
2018-11-13T13:41:54.850Z,11.1
2018-11-13T13:42:54.763Z,11.1
2018-11-13T13:43:54.681Z,11.1
2018-11-13T13:44:55.019Z,11.1
2018-11-13T13:45:54.936Z,11
2018-11-13T13:46:54.849Z,11.1
2018-11-13T13:47:54.762Z,11
2018-11-13T13:48:54.689Z,11.1
2018-11-13T13:49:54.591Z,11
2018-11-13T13:50:54.492Z,11
2018-11-13T13:51:54.416Z,11
2018-11-13T13:52:54.318Z,11
2018-11-13T13:53:54.744Z,11
2018-11-13T13:54:59.448Z,11
2018-11-13T14:05:00.166Z,11.5
2018-11-13T14:06:00.359Z,11.4
2018-11-13T14:07:00.542Z,11.3
2018-11-13T14:08:00.449Z,11.2
2018-11-13T14:09:00.547Z,11.2
2018-11-13T14:10:00.622Z,11.2
2018-11-13T14:11:00.536Z,11.1
2018-11-13T14:12:00.449Z,11
2018-11-13T14:13:00.371Z,11
2018-11-13T14:14:00.307Z,10.9
2018-11-13T14:15:01.302Z,11
2018-11-13T14:16:02.385Z,10.9
2018-11-13T14:17:02.298Z,11
2018-11-13T14:18:02.202Z,10.9
2018-11-13T14:19:02.126Z,11
2018-11-13T14:20:02.031Z,10.9
2018-11-13T14:21:02.369Z,10.9
2018-11-13T14:22:02.874Z,10.9
2018-11-13T14:23:02.779Z,10.9
2018-11-13T14:24:03.238Z,10.9
2018-11-13T14:25:03.610Z,10.9
2018-11-13T14:35:02.199Z,11.5
2018-11-13T14:36:02.127Z,11.5
2018-11-13T14:37:02.067Z,11.5
2018-11-13T14:38:01.998Z,11.5
2018-11-13T14:39:01.913Z,11.4
2018-11-13T14:40:01.856Z,11.4
2018-11-13T14:41:01.796Z,11.4
2018-11-13T14:42:01.730Z,11.3
2018-11-13T14:43:01.645Z,11.3
2018-11-13T14:44:01.559Z,11.3
2018-11-13T14:45:02.172Z,11.3
2018-11-13T14:46:02.565Z,11.3
2018-11-13T14:47:02.462Z,11.3
2018-11-13T14:48:02.418Z,11.2
2018-11-13T14:49:02.320Z,11.2
2018-11-13T14:50:02.265Z,11.2
2018-11-13T14:51:02.213Z,11.2
2018-11-13T14:52:02.123Z,11.2
2018-11-13T14:53:02.419Z,11.1
2018-11-13T14:54:05.454Z,11.1
2018-11-13T14:55:05.882Z,11.1
2018-11-13T14:56:05.800Z,11.1
2018-11-13T14:57:05.726Z,11.1
2018-11-13T14:58:05.633Z,11.1
2018-11-13T14:59:05.531Z,11.1
2018-11-13T15:00:05.467Z,11.1
2018-11-13T15:01:05.388Z,11.1
2018-11-13T15:02:05.291Z,11
2018-11-13T15:03:05.206Z,11
2018-11-13T15:04:05.126Z,11
2018-11-13T15:05:05.483Z,11
2018-11-13T15:06:05.387Z,11
2018-11-13T15:07:05.310Z,11
2018-11-13T15:08:05.591Z,10.9
2018-11-13T15:09:06.105Z,11
2018-11-13T15:10:06.040Z,11
2018-11-13T15:11:05.970Z,10.9
2018-11-13T15:12:05.894Z,10.9
2018-11-13T15:13:05.801Z,10.9
2018-11-13T15:14:05.708Z,10.9
2018-11-13T15:15:09.173Z,10.9
2018-11-13T15:16:09.366Z,10.9
2018-11-13T15:17:09.257Z,10.9
2018-11-13T15:18:09.166Z,10.9
2018-11-13T15:19:09.091Z,10.9
2018-11-13T15:20:09.015Z,10.9
2018-11-13T15:21:08.967Z,10.9
2018-11-13T15:22:08.993Z,10.9
2018-11-13T15:23:09.127Z,10.9
2018-11-13T15:24:12.858Z,10.9
2018-11-13T15:25:16.361Z,10.9
2018-11-13T15:26:16.274Z,10.8
2018-11-13T15:27:16.229Z,10.9
2018-11-13T15:28:16.239Z,10.9
2018-11-13T15:29:16.151Z,10.8
2018-11-13T15:30:16.062Z,10.8
2018-11-13T15:31:15.968Z,10.8
2018-11-13T15:32:15.886Z,10.8
2018-11-13T15:33:15.821Z,10.8
2018-11-13T15:34:15.719Z,10.8
2018-11-13T15:35:16.078Z,10.8
2018-11-13T15:45:16.108Z,11.5
2018-11-13T15:46:16.508Z,11.4
2018-11-13T15:47:18.404Z,11.4
2018-11-13T15:48:18.335Z,11.4
2018-11-13T15:49:18.327Z,11.4
2018-11-13T15:50:18.262Z,11.3
2018-11-13T15:51:18.348Z,11.3
2018-11-13T15:52:19.013Z,11.3
2018-11-13T15:53:19.886Z,11.2
2018-11-13T15:54:19.830Z,11.2
2018-11-13T15:55:20.195Z,11.2
2018-11-13T15:56:20.128Z,11.2
2018-11-13T15:57:20.047Z,11.1
2018-11-13T15:58:23.044Z,11.1
2018-11-13T15:59:23.102Z,11.1
2018-11-13T16:00:23.020Z,11.1
2018-11-13T16:01:22.925Z,11
2018-11-13T16:02:22.833Z,11.1
2018-11-13T16:03:22.744Z,11
2018-11-13T16:04:22.678Z,11
2018-11-13T16:05:23.066Z,10.9
2018-11-13T16:06:23.476Z,11
2018-11-13T16:07:23.820Z,11
2018-11-13T16:08:23.742Z,10.9
2018-11-13T16:09:23.768Z,10.9
2018-11-13T16:10:23.739Z,10.9
2018-11-13T16:11:23.693Z,10.9
2018-11-13T16:12:23.804Z,10.9
2018-11-13T16:13:24.092Z,10.9
2018-11-13T16:14:24.213Z,10.9
2018-11-13T16:15:24.640Z,10.8
2018-11-13T16:16:24.537Z,10.8
2018-11-13T16:17:24.428Z,10.8
2018-11-13T16:18:24.590Z,10.7
2018-11-13T16:19:25.028Z,10.8
2018-11-13T16:20:24.925Z,10.7
2018-11-13T16:21:25.241Z,10.7
2018-11-13T16:22:25.599Z,10.7
2018-11-13T16:23:25.598Z,10.7
2018-11-13T16:24:25.518Z,10.7
2018-11-13T16:25:25.844Z,10.7
2018-11-13T16:26:25.778Z,10.7
2018-11-13T16:27:25.684Z,10.7
2018-11-13T16:28:25.642Z,10.7
2018-11-13T16:29:25.554Z,10.7
2018-11-13T16:30:25.969Z,10.7
2018-11-13T16:31:26.825Z,10.7
2018-11-13T16:32:27.082Z,10.7
2018-11-13T16:33:26.980Z,10.7
2018-11-13T16:34:27.376Z,10.6
2018-11-13T16:35:28.494Z,10.6
2018-11-13T16:36:29.355Z,10.6
2018-11-13T16:37:29.887Z,10.6
2018-11-13T16:38:30.532Z,10.6
2018-11-13T16:39:31.058Z,10.7
2018-11-13T16:40:30.978Z,10.7
2018-11-13T16:41:31.103Z,10.6
2018-11-13T16:42:31.275Z,10.6
2018-11-13T16:43:31.188Z,10.6
2018-11-13T16:44:31.111Z,10.7
2018-11-13T16:45:31.693Z,10.6
2018-11-13T16:46:31.641Z,10.6
2018-11-13T16:47:31.551Z,10.7
2018-11-13T16:48:31.473Z,10.7